Latest Weather Observations for Cessnock Airport

IDN60801

Issued at 2:05 pm EST Wednesday 24 September 2014 (issued every 30 minutes, with the page automatically refreshed every 10 minutes)

About weather observations | Map of weather stations | Latest weather observations for NSW | Other Formats
Station Details ID: 061260 Name: CESSNOCK AIRPORT AWS Lat: -32.79 Lon: 151.34 Height: 61.0 m
Data from the previous 72 hours. | See also: Recent months at Cessnock Airport
Date/Time
EST
Temp
°C
App
Temp
°C
Dew
Point
Rel
Hum
%
Delta-T
°C
Wind Press
QNH
hPa
Press
MSL
hPa
Rain
since 9 am
mm
Dir
 
Spd
km/h
Gust
km/h
Spd
kts
Gust
kts
24/02:00pm 25.7 22.5 6.8 30 9.9 NNE 13 20 7 11 1017.1 1017.1 0.0
24/01:30pm 24.9 21.3 5.2 28 10.0 N 13 24 7 13 1017.8 1017.8 0.0
24/01:00pm 25.2 22.7 8.2 34 9.1 NW 11 19 6 10 1018.4 1018.4 0.0
24/12:30pm 24.2 20.9 8.2 36 8.5 N 15 24 8 13 1019.0 1019.0 0.0
24/12:00pm 23.4 19.7 7.9 37 8.2 NNW 17 24 9 13 1019.5 1019.5 0.0
24/11:30am 22.8 19.0 7.4 37 8.0 N 17 26 9 14 1020.1 1020.1 0.0
24/11:00am 22.3 19.1 8.4 41 7.3 NNW 15 24 8 13 1020.8 1020.8 0.0
24/10:30am 21.5 18.8 10.3 49 6.1 NNW 15 20 8 11 1021.4 1021.4 0.0
24/10:00am 19.9 18.0 11.7 59 4.5 N 13 20 7 11 1022.0 1022.0 0.0
24/09:30am 17.9 16.6 11.2 65 3.6 N 9 17 5 9 1022.4 1022.4 0.0
24/09:00am 16.3 16.3 14.1 87 1.2 NNE 7 11 4 6 1022.9 1022.8 0.0
24/08:30am 13.5 12.9 13.5 100 0.0 NE 9 13 5 7 1023.2 1023.1 0.0
24/08:00am 11.4 10.1 11.4 100 0.0 NE 9 9 5 5 1023.3 1023.2 0.0
24/07:30am 9.9 9.9 9.9 100 0.0 CALM 0 7 0 4 1023.5 1023.4 0.0
24/07:00am 8.5 8.2 8.5 100 0.0 CALM 0 6 0 3 1023.5 1023.4 0.0
24/06:30am 7.2 6.6 7.2 100 0.0 CALM 0 0 0 0 1023.5 1023.4 0.0
24/06:00am 5.7 4.7 5.7 100 0.0 CALM 0 0 0 0 1023.3 1023.2 0.0
24/05:30am 5.8 4.8 5.8 100 0.0 CALM 0 0 0 0 1023.0 1022.9 0.0
24/05:00am 5.5 4.5 5.5 100 0.0 CALM 0 0 0 0 1023.0 1022.9 0.0
24/04:30am 5.9 4.2 5.9 100 0.0 NW 4 6 2 3 1022.8 1022.7 0.0
24/04:00am 6.6 5.8 6.6 100 0.0 CALM 0 0 0 0 1022.6 1022.5 0.0
24/03:30am 6.8 6.1 6.8 100 0.0 CALM 0 0 0 0 1022.6 1022.5 0.0
24/03:00am 6.6 4.7 6.6 100 0.0 SSE 6 6 3 3 1022.8 1022.7 0.0
24/02:30am 7.8 7.3 7.8 100 0.0 CALM 0 0 0 0 1023.2 1023.1 0.0
24/02:00am 7.0 5.2 7.0 100 0.0 SSW 6 7 3 4 1023.5 1023.4 0.0
24/01:30am 7.7 6.8 7.7 100 0.0 SW 2 7 1 4 1023.9 1023.8 0.0
24/01:00am 8.1 7.3 8.1 100 0.0 SSW 2 6 1 3 1024.0 1023.9 0.0
24/12:30am 8.3 6.8 8.3 100 0.0 SSE 6 6 3 3 1024.4 1024.3 0.0
24/12:00am 9.7 8.3 9.7 100 0.0 SW 7 9 4 5 1024.8 1024.7 0.0
 
Date/Time
EST
Temp
°C
App
Temp
°C
Dew
Point
Rel
Hum
%
Delta-T
°C
Wind Press
QNH
hPa
Press
MSL
hPa
Rain
since 9 am
mm
Dir
 
Spd
km/h
Gust
km/h
Spd
kts
Gust
kts
23/11:30pm 9.5 8.2 9.2 98 0.1 SW 6 9 3 5 1025.0 1024.9 0.0
23/11:00pm 10.8 10.3 10.6 99 0.1 SW 4 6 2 3 1025.1 1025.0 0.0
23/10:30pm 11.4 10.9 10.8 96 0.3 SW 4 7 2 4 1025.4 1025.3 0.0
23/10:00pm 12.0 12.1 11.4 96 0.3 S 2 9 1 5 1025.6 1025.5 0.0
23/09:30pm 13.0 11.4 11.6 91 0.7 SSW 11 11 6 6 1025.6 1025.5 0.0
23/09:00pm 13.7 12.1 12.8 94 0.5 SSW 13 15 7 8 1025.6 1025.5 0.0
23/08:30pm 13.4 11.5 10.6 83 1.5 S 11 13 6 7 1025.7 1025.6 0.0
23/08:00pm 14.2 12.4 11.0 81 1.7 SSW 11 13 6 7 1026.0 1025.9 0.0
23/07:30pm 14.2 12.4 11.0 81 1.7 S 11 13 6 7 1026.0 1025.9 0.0
23/07:00pm 14.9 13.6 11.1 78 2.0 S 9 11 5 6 1025.9 1025.8 0.0
23/06:30pm 16.2 14.9 11.4 73 2.6 SE 9 13 5 7 1025.6 1025.5 0.0
23/06:00pm 17.0 15.3 11.3 69 3.1 SE 11 15 6 8 1025.3 1025.2 0.0
23/05:30pm 17.9 15.1 11.2 65 3.6 SE 17 24 9 13 1025.0 1024.9 0.0
23/05:00pm 19.0 16.3 11.6 62 4.1 ESE 17 22 9 12 1025.0 1024.9 0.0
23/04:30pm 19.5 15.7 11.0 58 4.6 ESE 22 32 12 17 1024.8 1024.7 0.0
23/04:00pm 20.4 16.9 10.8 54 5.2 E 20 30 11 16 1024.9 1024.8 0.0
23/03:30pm 21.2 17.0 9.8 48 6.2 E 22 26 12 14 1024.8 1024.7 0.0
23/03:00pm 21.6 18.1 8.8 44 6.8 E 17 24 9 13 1025.2 1025.1 0.0
23/02:30pm 22.1 18.7 5.9 35 8.2 ENE 13 19 7 10 1025.1 1025.0 0.0
23/02:00pm 21.9 18.4 5.3 34 8.2 E 13 20 7 11 1025.4 1025.3 0.0
23/01:30pm 21.1 17.7 4.2 33 8.2 ESE 11 17 6 9 1025.7 1025.6 0.0
23/01:00pm 21.1 17.1 5.1 35 7.9 NE 15 24 8 13 1026.3 1026.2 0.0
23/12:30pm 20.9 18.3 6.1 38 7.4 NNE 9 15 5 8 1026.7 1026.6 0.0
23/12:00pm 20.7 18.1 7.7 43 6.7 E 11 24 6 13 1027.2 1027.2 0.0
23/11:30am 19.6 17.3 7.4 45 6.2 E 9 17 5 9 1027.8 1027.8 0.0
23/11:00am 19.3 15.2 6.4 43 6.4 NE 17 22 9 12 1028.2 1028.2 0.0
23/10:30am 19.5 15.7 5.9 41 6.7 ENE 15 26 8 14 1028.7 1028.7 0.0
23/10:00am 18.4 14.8 6.9 47 5.7 E 15 20 8 11 1028.9 1028.9 0.0
23/09:30am 17.6 15.4 7.9 53 4.9 SE 9 15 5 8 1029.3 1029.3 0.0
23/09:00am 16.4 14.9 9.3 63 3.7 SE 7 11 4 6 1029.4 1029.4 0.0
23/08:30am 14.9 13.8 9.9 72 2.6 E 6 11 3 6 1029.7 1029.7 0.0
23/08:00am 12.3 12.2 10.9 91 0.7 E 2 6 1 3 1029.8 1029.8 0.0
23/07:30am 9.7 9.7 9.7 100 0.0 CALM 0 0 0 0 1029.7 1029.7 0.0
23/07:00am 7.6 7.0 7.6 100 0.0 CALM 0 0 0 0 1029.8 1029.8 0.0
23/06:30am 5.3 4.2 5.3 100 0.0 CALM 0 6 0 3 1029.8 1029.8 0.0
23/06:00am 3.9 2.6 3.9 100 0.0 CALM 0 0 0 0 1029.6 1029.6 0.0
23/05:30am 3.6 2.2 3.6 100 0.0 CALM 0 0 0 0 1029.3 1029.3 0.0
23/05:00am 2.6 1.0 2.6 100 0.0 CALM 0 2 0 1 1029.0 1029.0 0.0
23/04:30am 3.4 0.8 3.4 100 0.0 SSW 6 6 3 3 1028.8 1028.8 0.0
23/04:00am 4.0 2.7 4.0 100 0.0 CALM 0 0 0 0 1028.7 1028.7 0.0
23/03:30am 4.4 3.2 4.4 100 0.0 CALM 0 0 0 0 1028.7 1028.7 0.0
23/03:00am 4.5 3.3 4.5 100 0.0 CALM 0 0 0 0 1028.8 1028.8 0.0
23/02:30am 5.2 4.1 5.2 100 0.0 CALM 0 0 0 0 1028.8 1028.8 0.0
23/02:00am 4.8 3.6 4.8 100 0.0 CALM 0 0 0 0 1028.9 1028.9 0.0
23/01:30am 5.1 3.2 5.1 100 0.0 ESE 4 6 2 3 1029.1 1029.1 0.0
23/01:00am 6.3 5.1 6.3 100 0.0 SW 2 6 1 3 1029.3 1029.3 0.0
23/12:30am 6.1 4.8 6.1 100 0.0 SW 2 6 1 3 1029.4 1029.4 0.0
23/12:00am 6.9 5.4 6.9 100 0.0 SW 4 6 2 3 1029.5 1029.5 0.0
 
Date/Time
EST
Temp
°C
App
Temp
°C
Dew
Point
Rel
Hum
%
Delta-T
°C
Wind Press
QNH
hPa
Press
MSL
hPa
Rain
since 9 am
mm
Dir
 
Spd
km/h
Gust
km/h
Spd
kts
Gust
kts
22/11:30pm 7.6 5.9 7.6 100 0.0 SSW 6 7 3 4 1029.5 1029.5 0.0
22/11:00pm 6.9 5.4 6.9 100 0.0 S 4 7 2 4 1029.5 1029.5 0.0
22/10:30pm 7.6 6.2 7.3 98 0.1 SW 4 7 2 4 1029.7 1029.7 0.0
22/10:00pm 8.2 6.3 7.6 96 0.3 SSW 7 11 4 6 1029.8 1029.8 0.0
22/09:30pm 8.5 6.2 7.6 94 0.4 WSW 9 11 5 6 1029.9 1029.9 0.0
22/09:00pm 9.5 7.6 8.9 96 0.3 WSW 9 11 5 6 1030.1 1030.1 0.0
22/08:30pm 9.5 6.7 7.1 85 1.1 WSW 11 13 6 7 1030.0 1030.0 0.0
22/08:00pm 10.5 8.2 7.4 81 1.5 WSW 9 11 5 6 1029.7 1029.7 0.0
22/07:30pm 11.2 9.3 7.5 78 1.8 SW 7 9 4 5 1029.4 1029.4 0.0
22/07:00pm 12.7 10.5 8.0 73 2.3 SSW 9 9 5 5 1029.3 1029.3 0.0
22/06:30pm 14.1 12.5 7.9 66 3.1 ESE 6 11 3 6 1029.1 1029.1 0.0
22/06:00pm 15.8 12.9 8.3 61 3.8 ESE 13 19 7 10 1028.7 1028.7 0.0
22/05:30pm 16.9 13.6 8.1 56 4.5 E 15 20 8 11 1028.5 1028.5 0.0
22/05:00pm 18.1 14.2 7.2 49 5.5 E 17 22 9 12 1028.2 1028.2 0.0
22/04:30pm 18.4 14.5 7.2 48 5.7 E 17 20 9 11 1028.0 1028.0 0.0
22/04:00pm 19.4 15.1 6.8 44 6.3 E 19 26 10 14 1027.6 1027.6 0.0
22/03:30pm 19.8 15.5 7.2 44 6.4 E 19 28 10 15 1027.4 1027.4 0.0
22/03:00pm 20.0 15.9 8.0 46 6.2 ESE 19 28 10 15 1027.5 1027.5 0.0
22/02:30pm 20.0 16.4 6.7 42 6.7 ENE 15 20 8 11 1027.8 1027.8 0.0
22/02:00pm 20.2 16.6 6.9 42 6.7 ENE 15 19 8 10 1028.0 1028.0 0.0
22/01:30pm 19.3 15.8 7.4 46 6.1 ESE 15 20 8 11 1028.3 1028.3 0.0
22/01:00pm 18.9 16.0 6.7 45 6.1 SE 11 17 6 9 1028.8 1028.8 0.0
22/12:30pm 19.7 17.5 7.8 46 6.1 E 9 17 5 9 1029.3 1029.3 0.0
22/12:00pm 18.8 16.5 7.6 48 5.7 E 9 15 5 8 1029.9 1029.9 0.0
22/11:30am 19.1 16.9 7.8 48 5.8 NW 9 15 5 8 1030.3 1030.3 0.0
22/11:00am 18.1 16.7 8.7 54 4.8 ENE 6 9 3 5 1030.8 1030.8 0.0
22/10:30am 17.5 17.1 8.4 55 4.7 CALM 0 2 0 1 1031.1 1031.1 0.0
22/10:00am 17.9 16.5 9.5 58 4.4 N 7 11 4 6 1031.3 1031.3 0.0
22/09:30am 16.5 16.3 9.0 61 3.9 CALM 0 0 0 0 1031.5 1031.5 0.0
22/09:00am 16.8 15.8 10.4 66 3.4 N 6 9 3 5 1031.6 1031.6 0.0
22/08:30am 16.0 15.6 12.4 79 2.0 NE 6 7 3 4 1031.6 1031.6 0.0
22/08:00am 13.3 12.6 11.9 91 0.7 NNE 7 9 4 5 1031.5 1031.5 0.0
22/07:30am 11.1 11.5 11.1 100 0.0 CALM 0 0 0 0 1031.3 1031.3 0.0
22/07:00am 9.1 8.9 9.1 100 0.0 CALM 0 0 0 0 1030.9 1030.9 0.0
22/06:30am 6.3 5.5 6.3 100 0.0 CALM 0 0 0 0 1030.6 1030.6 0.0
22/06:00am 5.4 4.4 5.4 100 0.0 CALM 0 0 0 0 1030.1 1030.1 0.0
22/05:30am 4.7 3.1 4.7 100 0.0 SSE 2 9 1 5 1029.8 1029.8 0.0
22/05:00am 5.8 4.8 5.8 100 0.0 CALM 0 0 0 0 1029.3 1029.3 0.0
22/04:30am 5.8 4.8 5.8 100 0.0 CALM 0 0 0 0 1029.1 1029.1 0.0
22/04:00am 5.6 4.6 5.6 100 0.0 CALM 0 0 0 0 1028.9 1028.9 0.0
22/03:30am 6.1 5.2 6.1 100 0.0 CALM 0 0 0 0 1028.7 1028.7 0.0
22/03:00am 6.7 5.6 6.7 100 0.0 ESE 2 6 1 3 1028.7 1028.7 0.0
22/02:30am 6.6 5.8 6.6 100 0.0 CALM 0 0 0 0 1028.9 1028.9 0.0
22/02:00am 6.5 5.7 6.5 100 0.0 CALM 0 0 0 0 1028.9 1028.9 0.0
22/01:30am 7.1 6.4 7.1 100 0.0 CALM 0 0 0 0 1029.3 1029.3 0.0
22/01:00am 7.5 6.9 7.5 100 0.0 CALM 0 0 0 0 1029.5 1029.5 0.0
22/12:30am 7.7 7.2 7.7 100 0.0 CALM 0 0 0 0 1029.6 1029.6 0.0
22/12:00am 7.9 7.4 7.9 100 0.0 CALM 0 0 0 0 1029.8 1029.8 0.0
 
Date/Time
EST
Temp
°C
App
Temp
°C
Dew
Point
Rel
Hum
%
Delta-T
°C
Wind Press
QNH
hPa
Press
MSL
hPa
Rain
since 9 am
mm
Dir
 
Spd
km/h
Gust
km/h
Spd
kts
Gust
kts
21/11:30pm 8.2 7.8 8.2 100 0.0 CALM 0 0 0 0 1029.8 1029.8 0.0
21/11:00pm 8.0 6.7 7.7 98 0.1 SW 4 7 2 4 1029.8 1029.8 0.0
21/10:30pm 9.1 8.8 8.8 98 0.1 CALM 0 0 0 0 1029.9 1029.9 0.0
21/10:00pm 9.1 7.7 8.8 98 0.1 SE 6 9 3 5 1029.9 1029.9 0.0
21/09:30pm 9.8 7.9 9.2 96 0.3 SW 9 13 5 7 1029.9 1029.9 0.0
21/09:00pm 9.4 7.4 8.8 96 0.3 WSW 9 11 5 6 1030.0 1030.0 0.0
21/08:30pm 9.2 6.9 7.5 89 0.8 WSW 9 11 5 6 1029.9 1029.9 0.0
21/08:00pm 10.4 8.1 7.5 82 1.4 WSW 9 9 5 5 1029.7 1029.7 0.0
21/07:30pm 11.5 9.8 8.2 80 1.6 SSW 7 9 4 5 1029.4 1029.4 0.0
21/07:00pm 13.1 11.5 8.8 75 2.1 SSE 7 9 4 5 1028.8 1028.8 0.0
21/06:30pm 13.4 11.5 7.6 68 2.9 SE 7 9 4 5 1028.2 1028.2 0.0
21/06:00pm 15.2 12.8 8.7 65 3.3 ESE 11 15 6 8 1027.8 1027.8 0.0
21/05:30pm 16.3 13.5 8.5 60 4.0 ESE 13 17 7 9 1027.4 1027.4 0.0
21/05:00pm 17.4 14.4 9.3 59 4.2 ESE 15 20 8 11 1026.6 1026.5 0.0
21/04:30pm 17.7 14.7 9.1 57 4.5 ESE 15 20 8 11 1026.3 1026.2 0.0
21/04:00pm 18.3 15.1 8.3 52 5.1 ESE 15 20 8 11 1026.0 1025.9 0.0
21/03:30pm 18.8 15.0 9.0 53 5.1 ESE 19 28 10 15 1025.9 1025.8 0.0
21/03:00pm 19.5 16.1 9.1 51 5.5 SE 17 26 9 14 1026.1 1026.0 0.0
21/02:30pm 19.5 16.3 8.5 49 5.7 ESE 15 22 8 12 1026.4 1026.3 0.0

Other Formats:

Comma delimited format used in spreadsheet applications
http://www.bom.gov.au/fwo/IDN60801/IDN60801.95771.axf

JavaScript Object Notation format (JSON) in row-major order
http://www.bom.gov.au/fwo/IDN60801/IDN60801.95771.json